Terminal Aerodrome Forecast
Issued by NWS Jackson, KY

Home | Current Version | Previous Version | Text Only | Print | Product List | Glossary On
Versions: 1 2 3 4 5 6 7 8 9 10 11 12 13 14 15 16 17 18 19 20 21 22 23 24 25 26 27 28 29 30 31 32
715
FTUS43 KJKL 182034 AAA
TAFJKL
TAF AMD
KJKL 182034Z 1821/1918 22012G22KT P6SM VCSH BKN006 OVC015
      TEMPO 1821/1901 OVC015
     FM190100 23012G22KT P6SM OVC015
     FM190330 27012G26KT P6SM OVC020
     FM190900 27009G20KT P6SM -SHSN BKN025=

USA.gov is the U.S. government's official web portal to all federal, state and local government web resources and services.